sensor_id;sensor_type;location;lat;lon;timestamp;pressure;altitude;pressure_sealevel;temperature;humidity
70684;BME280;58263;48.146;11.440;2023-03-14T00:00:20;94218.41;;;10.88;68.13
70684;BME280;58263;48.146;11.440;2023-03-14T00:02:45;94216.84;;;10.87;67.72
70684;BME280;58263;48.146;11.440;2023-03-14T00:05:10;94216.84;;;10.87;67.72
70684;BME280;58263;48.146;11.440;2023-03-14T00:07:37;94209.84;;;10.75;68.22
70684;BME280;58263;48.146;11.440;2023-03-14T00:10:05;94200.47;;;10.73;68.46
70684;BME280;58263;48.146;11.440;2023-03-14T00:12:31;94210.38;;;10.62;68.71
70684;BME280;58263;48.146;11.440;2023-03-14T00:14:57;94209.84;;;10.70;68.24
70684;BME280;58263;48.146;11.440;2023-03-14T00:17:22;94208.78;;;10.71;68.71
70684;BME280;58263;48.146;11.440;2023-03-14T00:19:48;94223.53;;;10.69;68.95
70684;BME280;58263;48.146;11.440;2023-03-14T00:22:17;94229.97;;;10.73;68.91
70684;BME280;58263;48.146;11.440;2023-03-14T00:24:42;94231.84;;;10.67;69.46
70684;BME280;58263;48.146;11.440;2023-03-14T00:27:08;94217.09;;;10.70;69.59
70684;BME280;58263;48.146;11.440;2023-03-14T00:29:33;94192.97;;;10.75;69.60
70684;BME280;58263;48.146;11.440;2023-03-14T00:31:58;94188.94;;;10.72;69.72
70684;BME280;58263;48.146;11.440;2023-03-14T00:34:28;94181.97;;;10.71;69.75
70684;BME280;58263;48.146;11.440;2023-03-14T00:36:53;94180.63;;;10.69;70.16
70684;BME280;58263;48.146;11.440;2023-03-14T00:39:19;94184.41;;;10.62;70.65
70684;BME280;58263;48.146;11.440;2023-03-14T00:41:44;94195.91;;;10.63;70.63
70684;BME280;58263;48.146;11.440;2023-03-14T00:44:09;94212.28;;;10.56;70.91
70684;BME280;58263;48.146;11.440;2023-03-14T00:46:35;94225.41;;;10.68;70.51
70684;BME280;58263;48.146;11.440;2023-03-14T00:49:00;94231.84;;;10.57;71.40
70684;BME280;58263;48.146;11.440;2023-03-14T00:51:25;94217.13;;;10.59;71.22
70684;BME280;58263;48.146;11.440;2023-03-14T00:53:50;94224.06;;;10.71;70.93
70684;BME280;58263;48.146;11.440;2023-03-14T00:56:16;94216.81;;;10.71;71.04
70684;BME280;58263;48.146;11.440;2023-03-14T00:58:41;94220.31;;;10.72;71.31
70684;BME280;58263;48.146;11.440;2023-03-14T01:01:13;94236.66;;;10.75;71.27
70684;BME280;58263;48.146;11.440;2023-03-14T01:03:39;94235.34;;;10.68;72.10
70684;BME280;58263;48.146;11.440;2023-03-14T01:06:13;94231.84;;;10.72;71.84
70684;BME280;58263;48.146;11.440;2023-03-14T01:08:38;94239.88;;;10.67;72.55
70684;BME280;58263;48.146;11.440;2023-03-14T01:11:08;94248.72;;;10.73;72.73
70684;BME280;58263;48.146;11.440;2023-03-14T01:13:34;94250.59;;;10.62;74.14
70684;BME280;58263;48.146;11.440;2023-03-14T01:16:05;94247.94;;;10.62;74.17
70684;BME280;58263;48.146;11.440;2023-03-14T01:18:32;94260.25;;;10.47;75.11
70684;BME280;58263;48.146;11.440;2023-03-14T01:20:58;94257.59;;;10.53;74.59
70684;BME280;58263;48.146;11.440;2023-03-14T01:23:23;94249.81;;;10.46;74.77
70684;BME280;58263;48.146;11.440;2023-03-14T01:25:48;94259.19;;;10.48;75.79
70684;BME280;58263;48.146;11.440;2023-03-14T01:28:14;94265.38;;;10.54;76.07
70684;BME280;58263;48.146;11.440;2023-03-14T01:30:39;94273.41;;;10.54;77.03
70684;BME280;58263;48.146;11.440;2023-03-14T01:33:04;94275.53;;;10.52;77.12
70684;BME280;58263;48.146;11.440;2023-03-14T01:35:30;94273.13;;;10.51;77.66
70684;BME280;58263;48.146;11.440;2023-03-14T01:37:55;94270.44;;;10.40;78.39
70684;BME280;58263;48.146;11.440;2023-03-14T01:40:20;94284.38;;;10.37;78.57
70684;BME280;58263;48.146;11.440;2023-03-14T01:43:12;94277.88;;;10.33;79.20
70684;BME280;58263;48.146;11.440;2023-03-14T01:48:21;94288.59;;;10.18;79.05
70684;BME280;58263;48.146;11.440;2023-03-14T01:50:46;94289.63;;;10.06;79.98
70684;BME280;58263;48.146;11.440;2023-03-14T01:53:13;94289.09;;;10.09;79.50
70684;BME280;58263;48.146;11.440;2023-03-14T01:55:38;94289.22;;;9.72;81.60
70684;BME280;58263;48.146;11.440;2023-03-14T01:58:04;94290.53;;;9.69;81.08
70684;BME280;58263;48.146;11.440;2023-03-14T02:00:30;94283.00;;;9.56;81.16
70684;BME280;58263;48.146;11.440;2023-03-14T02:03:05;94281.13;;;9.56;81.43
70684;BME280;58263;48.146;11.440;2023-03-14T02:05:35;94277.13;;;9.59;81.47
70684;BME280;58263;48.146;11.440;2023-03-14T02:08:06;94261.78;;;9.44;81.81
70684;BME280;58263;48.146;11.440;2023-03-14T02:10:37;94266.63;;;9.47;81.97
70684;BME280;58263;48.146;11.440;2023-03-14T02:13:04;94266.28;;;9.33;82.09
70684;BME280;58263;48.146;11.440;2023-03-14T02:15:30;94252.34;;;9.31;81.75
70684;BME280;58263;48.146;11.440;2023-03-14T02:17:56;94244.81;;;9.23;82.13
70684;BME280;58263;48.146;11.440;2023-03-14T02:23:00;94227.88;;;9.07;82.79
70684;BME280;58263;48.146;11.440;2023-03-14T02:27:54;94186.91;;;8.96;81.98
70684;BME280;58263;48.146;11.440;2023-03-14T02:30:22;94176.25;;;9.06;82.77
70684;BME280;58263;48.146;11.440;2023-03-14T02:32:51;94159.44;;;9.16;82.32
70684;BME280;58263;48.146;11.440;2023-03-14T02:35:27;94142.84;;;9.14;82.19
70684;BME280;58263;48.146;11.440;2023-03-14T02:37:56;94127.06;;;9.12;82.52
70684;BME280;58263;48.146;11.440;2023-03-14T02:40:22;94105.38;;;9.09;83.00
70684;BME280;58263;48.146;11.440;2023-03-14T02:42:48;94101.34;;;9.06;83.53
70684;BME280;58263;48.146;11.440;2023-03-14T02:47:43;94107.25;;;9.08;82.89
70684;BME280;58263;48.146;11.440;2023-03-14T02:50:13;94081.53;;;8.97;82.86
70684;BME280;58263;48.146;11.440;2023-03-14T02:52:39;94081.53;;;8.97;82.75
70684;BME280;58263;48.146;11.440;2023-03-14T02:55:05;94080.19;;;8.94;81.85
70684;BME280;58263;48.146;11.440;2023-03-14T02:57:30;94074.84;;;9.00;82.26
70684;BME280;58263;48.146;11.440;2023-03-14T03:00:00;94091.13;;;8.93;82.78
70684;BME280;58263;48.146;11.440;2023-03-14T03:02:26;94106.63;;;8.86;81.70
70684;BME280;58263;48.146;11.440;2023-03-14T03:04:52;94111.69;;;8.87;81.48
70684;BME280;58263;48.146;11.440;2023-03-14T03:07:17;94099.09;;;8.77;81.88
70684;BME280;58263;48.146;11.440;2023-03-14T03:09:42;94118.84;;;8.76;81.28
70684;BME280;58263;48.146;11.440;2023-03-14T03:12:08;94112.97;;;8.74;81.32
70684;BME280;58263;48.146;11.440;2023-03-14T03:14:33;94125.28;;;8.75;81.34
70684;BME280;58263;48.146;11.440;2023-03-14T03:16:58;94115.69;;;8.79;81.89
70684;BME280;58263;48.146;11.440;2023-03-14T03:19:27;94114.59;;;8.80;81.22
70684;BME280;58263;48.146;11.440;2023-03-14T03:21:52;94112.47;;;8.77;81.73
70684;BME280;58263;48.146;11.440;2023-03-14T03:24:17;94117.03;;;8.82;81.28
70684;BME280;58263;48.146;11.440;2023-03-14T03:26:43;94119.84;;;8.60;81.36
70684;BME280;58263;48.146;11.440;2023-03-14T03:29:08;94115.09;;;8.67;80.97
70684;BME280;58263;48.146;11.440;2023-03-14T03:31:33;94104.63;;;8.60;81.06
70684;BME280;58263;48.146;11.440;2023-03-14T03:33:58;94108.66;;;8.63;80.26
70684;BME280;58263;48.146;11.440;2023-03-14T03:36:25;94096.56;;;8.55;80.66
70684;BME280;58263;48.146;11.440;2023-03-14T03:38:51;94097.63;;;8.54;80.54
70684;BME280;58263;48.146;11.440;2023-03-14T03:41:16;94097.97;;;8.63;79.68
70684;BME280;58263;48.146;11.440;2023-03-14T03:43:41;94101.59;;;8.46;80.20
70684;BME280;58263;48.146;11.440;2023-03-14T03:46:07;94103.22;;;8.53;79.51
70684;BME280;58263;48.146;11.440;2023-03-14T03:48:34;94093.88;;;8.50;79.85
70684;BME280;58263;48.146;11.440;2023-03-14T03:51:00;94100.56;;;8.53;79.71
70684;BME280;58263;48.146;11.440;2023-03-14T03:53:25;94093.56;;;8.46;78.41
70684;BME280;58263;48.146;11.440;2023-03-14T03:55:51;94091.75;;;8.52;79.04
70684;BME280;58263;48.146;11.440;2023-03-14T03:58:16;94097.78;;;8.42;78.78
70684;BME280;58263;48.146;11.440;2023-03-14T04:00:41;94090.84;;;8.41;78.25
70684;BME280;58263;48.146;11.440;2023-03-14T04:03:07;94088.72;;;8.43;78.78
70684;BME280;58263;48.146;11.440;2023-03-14T04:05:32;94081.81;;;8.48;77.98
70684;BME280;58263;48.146;11.440;2023-03-14T04:07:59;94094.00;;;8.33;78.91
70684;BME280;58263;48.146;11.440;2023-03-14T04:10:24;94097.47;;;8.34;77.65
70684;BME280;58263;48.146;11.440;2023-03-14T04:12:50;94093.72;;;8.29;78.22
70684;BME280;58263;48.146;11.440;2023-03-14T04:15:15;94086.22;;;8.26;79.44
70684;BME280;58263;48.146;11.440;2023-03-14T04:17:40;94086.47;;;8.25;78.74
70684;BME280;58263;48.146;11.440;2023-03-14T04:20:07;94078.75;;;8.28;79.09
70684;BME280;58263;48.146;11.440;2023-03-14T04:22:36;94079.00;;;8.27;78.40
70684;BME280;58263;48.146;11.440;2023-03-14T04:25:01;94071.78;;;8.22;78.41
70684;BME280;58263;48.146;11.440;2023-03-14T04:27:28;94070.41;;;8.20;78.38
70684;BME280;58263;48.146;11.440;2023-03-14T04:29:53;94072.56;;;8.23;78.12
70684;BME280;58263;48.146;11.440;2023-03-14T04:32:19;94065.03;;;8.15;78.65
70684;BME280;58263;48.146;11.440;2023-03-14T04:34:44;94053.25;;;8.10;78.11
70684;BME280;58263;48.146;11.440;2023-03-14T04:37:09;94061.25;;;8.10;78.31
70684;BME280;58263;48.146;11.440;2023-03-14T04:39:35;94064.94;;;8.04;78.72
70684;BME280;58263;48.146;11.440;2023-03-14T04:42:00;94069.53;;;8.09;78.29
70684;BME280;58263;48.146;11.440;2023-03-14T04:44:25;94068.50;;;8.15;77.56
70684;BME280;58263;48.146;11.440;2023-03-14T04:46:51;94062.34;;;8.15;77.34
70684;BME280;58263;48.146;11.440;2023-03-14T04:49:16;94057.03;;;8.15;77.17
70684;BME280;58263;48.146;11.440;2023-03-14T04:51:41;94058.59;;;8.10;77.10
70684;BME280;58263;48.146;11.440;2023-03-14T04:54:07;94044.22;;;8.17;77.11
70684;BME280;58263;48.146;11.440;2023-03-14T04:56:33;94038.53;;;8.08;77.65
70684;BME280;58263;48.146;11.440;2023-03-14T04:58:58;94033.28;;;8.18;76.95
70684;BME280;58263;48.146;11.440;2023-03-14T05:01:23;94026.09;;;8.24;77.14
70684;BME280;58263;48.146;11.440;2023-03-14T05:03:49;94024.97;;;8.15;76.44
70684;BME280;58263;48.146;11.440;2023-03-14T05:06:14;94035.16;;;8.23;76.48
70684;BME280;58263;48.146;11.440;2023-03-14T05:08:39;94033.78;;;8.15;76.38
70684;BME280;58263;48.146;11.440;2023-03-14T05:11:05;94021.75;;;8.12;76.87
70684;BME280;58263;48.146;11.440;2023-03-14T05:13:30;94028.66;;;8.08;76.53
70684;BME280;58263;48.146;11.440;2023-03-14T05:16:07;94032.41;;;8.12;76.87
70684;BME280;58263;48.146;11.440;2023-03-14T05:18:32;94031.38;;;8.13;76.82
70684;BME280;58263;48.146;11.440;2023-03-14T05:20:58;94025.53;;;8.17;76.76
70684;BME280;58263;48.146;11.440;2023-03-14T05:23:23;94019.16;;;8.23;75.94
70684;BME280;58263;48.146;11.440;2023-03-14T05:25:49;94025.00;;;8.20;76.21
70684;BME280;58263;48.146;11.440;2023-03-14T05:28:14;94033.06;;;8.25;75.90
70684;BME280;58263;48.146;11.440;2023-03-14T05:30:39;94026.09;;;8.24;76.03
70684;BME280;58263;48.146;11.440;2023-03-14T05:33:05;94018.00;;;8.13;76.12
70684;BME280;58263;48.146;11.440;2023-03-14T05:35:30;94014.31;;;8.20;76.58
70684;BME280;58263;48.146;11.440;2023-03-14T05:37:56;94020.47;;;8.20;76.14
70684;BME280;58263;48.146;11.440;2023-03-14T05:40:21;94017.53;;;8.22;76.19
70684;BME280;58263;48.146;11.440;2023-03-14T05:42:46;94006.56;;;8.18;76.29
70684;BME280;58263;48.146;11.440;2023-03-14T05:45:12;94020.19;;;8.17;76.27
70684;BME280;58263;48.146;11.440;2023-03-14T05:47:37;94019.16;;;8.23;76.35
70684;BME280;58263;48.146;11.440;2023-03-14T05:50:02;94014.25;;;8.09;76.35
70684;BME280;58263;48.146;11.440;2023-03-14T05:52:28;94003.56;;;8.09;76.64
70684;BME280;58263;48.146;11.440;2023-03-14T05:54:53;94005.22;;;8.16;76.35
70684;BME280;58263;48.146;11.440;2023-03-14T05:57:18;93999.31;;;8.13;76.70
70684;BME280;58263;48.146;11.440;2023-03-14T05:59:44;93992.38;;;8.12;76.52
70684;BME280;58263;48.146;11.440;2023-03-14T06:02:09;93986.78;;;8.19;76.77
70684;BME280;58263;48.146;11.440;2023-03-14T06:04:34;93988.94;;;8.17;76.66
70684;BME280;58263;48.146;11.440;2023-03-14T06:07:00;93991.91;;;8.26;76.24
70684;BME280;58263;48.146;11.440;2023-03-14T06:09:25;93986.78;;;8.19;76.37
70684;BME280;58263;48.146;11.440;2023-03-14T06:11:50;93984.97;;;8.25;75.99
70684;BME280;58263;48.146;11.440;2023-03-14T06:14:17;93987.38;;;8.26;76.19
70684;BME280;58263;48.146;11.440;2023-03-14T06:16:42;93987.16;;;8.33;75.73
70684;BME280;58263;48.146;11.440;2023-03-14T06:19:07;93991.19;;;8.36;75.52
70684;BME280;58263;48.146;11.440;2023-03-14T06:21:33;93993.28;;;8.34;75.80
70684;BME280;58263;48.146;11.440;2023-03-14T06:23:58;94002.69;;;8.41;75.71
70684;BME280;58263;48.146;11.440;2023-03-14T06:26:23;93993.91;;;8.46;75.25
70684;BME280;58263;48.146;11.440;2023-03-14T06:28:49;93988.50;;;8.41;75.48
70684;BME280;58263;48.146;11.440;2023-03-14T06:31:16;93976.03;;;8.52;75.37
70684;BME280;58263;48.146;11.440;2023-03-14T06:33:41;93973.94;;;8.59;75.77
70684;BME280;58263;48.146;11.440;2023-03-14T06:36:07;93975.03;;;8.63;75.14
70684;BME280;58263;48.146;11.440;2023-03-14T06:38:32;93967.00;;;8.68;75.42
70684;BME280;58263;48.146;11.440;2023-03-14T06:41:03;93959.28;;;8.72;74.99
70684;BME280;58263;48.146;11.440;2023-03-14T06:43:28;93957.91;;;8.69;74.23
70684;BME280;58263;48.146;11.440;2023-03-14T06:45:54;93955.78;;;8.66;74.56
70684;BME280;58263;48.146;11.440;2023-03-14T06:48:19;93940.31;;;8.78;74.34
70684;BME280;58263;48.146;11.440;2023-03-14T06:50:44;93961.16;;;8.71;74.35
70684;BME280;58263;48.146;11.440;2023-03-14T06:53:10;93965.44;;;8.83;74.21
70684;BME280;58263;48.146;11.440;2023-03-14T06:55:35;93972.41;;;8.89;73.84
70684;BME280;58263;48.146;11.440;2023-03-14T06:58:00;93980.19;;;8.90;73.90
70684;BME280;58263;48.146;11.440;2023-03-14T07:00:29;93985.25;;;8.87;74.41
70684;BME280;58263;48.146;11.440;2023-03-14T07:02:54;93986.84;;;8.88;73.71
70684;BME280;58263;48.146;11.440;2023-03-14T07:05:19;93990.88;;;8.90;73.16
70684;BME280;58263;48.146;11.440;2023-03-14T07:07:45;93997.03;;;8.96;73.18
70684;BME280;58263;48.146;11.440;2023-03-14T07:10:10;94004.50;;;8.94;72.48
70684;BME280;58263;48.146;11.440;2023-03-14T07:12:36;94010.94;;;8.98;72.91
70684;BME280;58263;48.146;11.440;2023-03-14T07:15:01;94008.25;;;8.98;73.07
70684;BME280;58263;48.146;11.440;2023-03-14T07:17:26;94003.97;;;8.92;72.71
70684;BME280;58263;48.146;11.440;2023-03-14T07:19:52;93998.91;;;8.90;72.01
70684;BME280;58263;48.146;11.440;2023-03-14T07:22:17;93987.41;;;8.95;71.98
70684;BME280;58263;48.146;11.440;2023-03-14T07:24:42;93997.31;;;8.94;71.78
70684;BME280;58263;48.146;11.440;2023-03-14T07:27:07;93998.13;;;9.05;70.97
70684;BME280;58263;48.146;11.440;2023-03-14T07:29:33;93987.44;;;9.05;71.07
70684;BME280;58263;48.146;11.440;2023-03-14T07:31:58;93991.72;;;9.11;71.26
70684;BME280;58263;48.146;11.440;2023-03-14T07:34:23;93982.06;;;9.10;70.39
70684;BME280;58263;48.146;11.440;2023-03-14T07:36:49;93979.41;;;9.10;70.47
70684;BME280;58263;48.146;11.440;2023-03-14T07:39:14;93986.13;;;9.18;70.16
70684;BME280;58263;48.146;11.440;2023-03-14T07:41:40;93981.31;;;9.25;70.53
70684;BME280;58263;48.146;11.440;2023-03-14T07:44:05;93986.94;;;9.29;69.89
70684;BME280;58263;48.146;11.440;2023-03-14T07:46:30;93985.34;;;9.38;69.60
70684;BME280;58263;48.146;11.440;2023-03-14T07:48:55;93985.88;;;9.40;69.45
70684;BME280;58263;48.146;11.440;2023-03-14T07:51:21;93977.28;;;9.43;68.88
70684;BME280;58263;48.146;11.440;2023-03-14T07:53:46;93974.09;;;9.46;68.87
70684;BME280;58263;48.146;11.440;2023-03-14T07:56:11;93974.63;;;9.54;68.61
70684;BME280;58263;48.146;11.440;2023-03-14T07:58:37;93985.63;;;9.57;68.04
70684;BME280;58263;48.146;11.440;2023-03-14T08:01:02;93965.78;;;9.69;67.59
70684;BME280;58263;48.146;11.440;2023-03-14T08:03:28;93976.75;;;9.77;67.41
70684;BME280;58263;48.146;11.440;2023-03-14T08:05:53;93978.38;;;9.78;65.97
70684;BME280;58263;48.146;11.440;2023-03-14T08:08:19;93972.47;;;9.92;66.46
70684;BME280;58263;48.146;11.440;2023-03-14T08:10:44;93982.13;;;9.98;65.56
70684;BME280;58263;48.146;11.440;2023-03-14T08:13:11;93977.50;;;10.09;65.46
70684;BME280;58263;48.146;11.440;2023-03-14T08:15:36;93972.69;;;10.16;65.25
70684;BME280;58263;48.146;11.440;2023-03-14T08:18:02;93982.06;;;10.19;64.87
70684;BME280;58263;48.146;11.440;2023-03-14T08:20:29;93977.72;;;10.33;64.88
70684;BME280;58263;48.146;11.440;2023-03-14T08:22:59;93978.56;;;10.23;64.99
70684;BME280;58263;48.146;11.440;2023-03-14T08:25:26;93986.88;;;10.22;64.07
70684;BME280;58263;48.146;11.440;2023-03-14T08:27:51;93982.03;;;10.34;64.50
70684;BME280;58263;48.146;11.440;2023-03-14T08:30:18;93987.38;;;10.34;64.29
70684;BME280;58263;48.146;11.440;2023-03-14T08:32:44;93995.44;;;10.39;65.35
70684;BME280;58263;48.146;11.440;2023-03-14T08:35:10;93998.13;;;10.39;64.64
70684;BME280;58263;48.146;11.440;2023-03-14T08:37:36;93990.06;;;10.34;64.47
70684;BME280;58263;48.146;11.440;2023-03-14T08:40:03;93993.25;;;10.57;64.31
70684;BME280;58263;48.146;11.440;2023-03-14T08:42:33;93991.63;;;10.61;63.43
70684;BME280;58263;48.146;11.440;2023-03-14T08:44:59;93992.44;;;10.56;63.59
70684;BME280;58263;48.146;11.440;2023-03-14T08:47:24;93996.00;;;10.36;63.95
70684;BME280;58263;48.146;11.440;2023-03-14T08:49:49;94001.56;;;10.55;63.35
70684;BME280;58263;48.146;11.440;2023-03-14T08:52:15;94003.44;;;10.49;62.74
70684;BME280;58263;48.146;11.440;2023-03-14T08:54:43;93999.13;;;10.64;62.60
70684;BME280;58263;48.146;11.440;2023-03-14T08:57:09;94002.56;;;10.70;62.19
70684;BME280;58263;48.146;11.440;2023-03-14T08:59:34;94008.72;;;10.75;61.81
70684;BME280;58263;48.146;11.440;2023-03-14T09:01:59;94007.06;;;10.90;62.19
70684;BME280;58263;48.146;11.440;2023-03-14T09:04:28;94008.44;;;10.77;61.31
70684;BME280;58263;48.146;11.440;2023-03-14T09:06:53;94011.66;;;10.84;61.62
70684;BME280;58263;48.146;11.440;2023-03-14T09:09:19;94016.72;;;10.86;61.89
70684;BME280;58263;48.146;11.440;2023-03-14T09:11:44;94018.28;;;10.97;61.87
70684;BME280;58263;48.146;11.440;2023-03-14T09:14:10;94015.63;;;10.92;61.05
70684;BME280;58263;48.146;11.440;2023-03-14T09:16:35;94011.56;;;10.99;61.41
70684;BME280;58263;48.146;11.440;2023-03-14T09:19:00;94013.97;;;11.01;60.84
70684;BME280;58263;48.146;11.440;2023-03-14T09:21:26;94015.31;;;10.98;60.45
70684;BME280;58263;48.146;11.440;2023-03-14T09:23:52;94014.81;;;10.91;60.70
70684;BME280;58263;48.146;11.440;2023-03-14T09:26:18;94014.03;;;10.91;60.67
70684;BME280;58263;48.146;11.440;2023-03-14T09:28:43;94009.25;;;10.77;60.86
70684;BME280;58263;48.146;11.440;2023-03-14T09:31:10;94007.91;;;10.80;59.86
70684;BME280;58263;48.146;11.440;2023-03-14T09:33:37;94001.19;;;10.82;60.03
70684;BME280;58263;48.146;11.440;2023-03-14T09:36:02;94004.69;;;10.73;59.45
70684;BME280;58263;48.146;11.440;2023-03-14T09:38:28;93995.88;;;10.72;59.56
70684;BME280;58263;48.146;11.440;2023-03-14T09:40:54;94007.66;;;10.66;59.04
70684;BME280;58263;48.146;11.440;2023-03-14T09:43:24;93997.94;;;10.86;58.95
70684;BME280;58263;48.146;11.440;2023-03-14T09:45:50;93998.72;;;10.91;58.98
70684;BME280;58263;48.146;11.440;2023-03-14T09:48:19;93999.47;;;11.02;58.81
70684;BME280;58263;48.146;11.440;2023-03-14T09:50:48;93988.19;;;11.05;59.38
70684;BME280;58263;48.146;11.440;2023-03-14T09:53:20;93985.97;;;11.18;58.85
70684;BME280;58263;48.146;11.440;2023-03-14T09:55:49;93986.09;;;11.42;58.73
70684;BME280;58263;48.146;11.440;2023-03-14T09:58:20;93989.22;;;11.54;58.12
70684;BME280;58263;48.146;11.440;2023-03-14T10:00:45;93983.97;;;11.73;57.21
70684;BME280;58263;48.146;11.440;2023-03-14T10:05:36;93977.22;;;12.10;55.85
70684;BME280;58263;48.146;11.440;2023-03-14T10:08:01;93984.88;;;12.27;56.23
70684;BME280;58263;48.146;11.440;2023-03-14T10:10:27;93978.81;;;12.41;56.22
70684;BME280;58263;48.146;11.440;2023-03-14T10:13:05;93982.19;;;12.95;55.03
70684;BME280;58263;48.146;11.440;2023-03-14T10:15:38;93967.66;;;13.72;53.44
70684;BME280;58263;48.146;11.440;2023-03-14T10:18:10;93967.41;;;14.34;50.69
70684;BME280;58263;48.146;11.440;2023-03-14T10:20:41;93966.91;;;15.02;48.49
70684;BME280;58263;48.146;11.440;2023-03-14T10:25:42;93953.03;;;14.67;47.49
70684;BME280;58263;48.146;11.440;2023-03-14T10:28:23;93963.41;;;14.60;46.72
70684;BME280;58263;48.146;11.440;2023-03-14T10:30:49;93958.25;;;14.77;46.83
70684;BME280;58263;48.146;11.440;2023-03-14T10:33:23;93953.50;;;14.27;47.00
70684;BME280;58263;48.146;11.440;2023-03-14T10:36:00;93949.84;;;14.37;46.76
70684;BME280;58263;48.146;11.440;2023-03-14T10:38:31;93954.22;;;14.88;45.80
70684;BME280;58263;48.146;11.440;2023-03-14T10:40:57;93952.91;;;15.50;45.06
70684;BME280;58263;48.146;11.440;2023-03-14T10:43:31;93945.78;;;15.54;45.39
70684;BME280;58263;48.146;11.440;2023-03-14T10:45:58;93957.56;;;15.22;45.39
70684;BME280;58263;48.146;11.440;2023-03-14T10:48:32;93953.56;;;15.56;44.06
70684;BME280;58263;48.146;11.440;2023-03-14T10:51:08;93954.47;;;15.51;45.07
70684;BME280;58263;48.146;11.440;2023-03-14T10:53:58;93956.47;;;16.05;43.95
70684;BME280;58263;48.146;11.440;2023-03-14T10:56:25;93963.50;;;15.47;44.55
70684;BME280;58263;48.146;11.440;2023-03-14T10:58:53;93957.06;;;15.57;44.63
70684;BME280;58263;48.146;11.440;2023-03-14T11:01:51;93961.72;;;15.06;46.13
70684;BME280;58263;48.146;11.440;2023-03-14T11:18:50;93949.03;;;15.88;42.36
70684;BME280;58263;48.146;11.440;2023-03-14T11:24:28;93944.78;;;17.08;39.10
70684;BME280;58263;48.146;11.440;2023-03-14T11:27:13;93952.97;;;17.43;38.48
70684;BME280;58263;48.146;11.440;2023-03-14T11:30:13;93952.13;;;18.68;36.40
70684;BME280;58263;48.146;11.440;2023-03-14T11:32:43;93949.44;;;17.16;39.72
70684;BME280;58263;48.146;11.440;2023-03-14T11:35:24;93951.69;;;16.82;40.27
70684;BME280;58263;48.146;11.440;2023-03-14T11:38:03;93949.97;;;16.06;41.73
70684;BME280;58263;48.146;11.440;2023-03-14T11:40:31;93943.94;;;15.86;42.15
70684;BME280;58263;48.146;11.440;2023-03-14T11:45:38;93939.94;;;14.60;44.39
70684;BME280;58263;48.146;11.440;2023-03-14T11:48:14;93948.22;;;14.22;45.16
70684;BME280;58263;48.146;11.440;2023-03-14T11:50:43;93951.38;;;14.10;46.00
70684;BME280;58263;48.146;11.440;2023-03-14T11:53:14;93949.91;;;13.85;46.46
70684;BME280;58263;48.146;11.440;2023-03-14T11:55:43;93947.81;;;13.49;46.38
70684;BME280;58263;48.146;11.440;2023-03-14T11:58:14;93956.22;;;13.80;45.99
70684;BME280;58263;48.146;11.440;2023-03-14T12:00:41;93944.22;;;14.19;44.84
70684;BME280;58263;48.146;11.440;2023-03-14T12:03:22;93946.38;;;13.57;45.17
70684;BME280;58263;48.146;11.440;2023-03-14T12:06:32;93956.59;;;13.74;45.41
70684;BME280;58263;48.146;11.440;2023-03-14T12:09:05;93947.03;;;13.48;45.63
70684;BME280;58263;48.146;11.440;2023-03-14T12:14:22;93947.44;;;13.17;46.91
70684;BME280;58263;48.146;11.440;2023-03-14T12:16:50;93944.59;;;13.28;46.92
70684;BME280;58263;48.146;11.440;2023-03-14T12:21:56;93957.88;;;13.43;46.61
70684;BME280;58263;48.146;11.440;2023-03-14T12:24:30;93950.94;;;13.37;46.48
70684;BME280;58263;48.146;11.440;2023-03-14T12:27:02;93948.69;;;13.25;47.35
70684;BME280;58263;48.146;11.440;2023-03-14T12:29:28;93924.72;;;13.24;47.48
70684;BME280;58263;48.146;11.440;2023-03-14T12:34:30;93958.16;;;13.94;45.19
70684;BME280;58263;48.146;11.440;2023-03-14T12:37:04;93945.59;;;14.17;45.17
70684;BME280;58263;48.146;11.440;2023-03-14T12:39:45;93956.16;;;13.99;45.93
70684;BME280;58263;48.146;11.440;2023-03-14T12:42:36;93948.19;;;14.08;45.18
70684;BME280;58263;48.146;11.440;2023-03-14T12:50:36;93962.34;;;14.00;46.31
70684;BME280;58263;48.146;11.440;2023-03-14T12:53:28;93949.09;;;13.71;47.35
70684;BME280;58263;48.146;11.440;2023-03-14T12:56:03;93967.09;;;13.89;47.34
70684;BME280;58263;48.146;11.440;2023-03-14T12:58:35;93967.97;;;13.51;47.64
70684;BME280;58263;48.146;11.440;2023-03-14T13:01:05;93974.91;;;13.39;48.21
70684;BME280;58263;48.146;11.440;2023-03-14T13:03:51;93965.41;;;13.22;48.17
70684;BME280;58263;48.146;11.440;2023-03-14T13:07:28;93974.00;;;13.24;48.18
70684;BME280;58263;48.146;11.440;2023-03-14T13:12:02;93978.09;;;12.78;49.15
70684;BME280;58263;48.146;11.440;2023-03-14T13:14:31;93977.47;;;12.62;49.35
70684;BME280;58263;48.146;11.440;2023-03-14T13:17:00;93973.16;;;12.85;49.10
70684;BME280;58263;48.146;11.440;2023-03-14T13:19:28;93988.06;;;12.78;49.17
70684;BME280;58263;48.146;11.440;2023-03-14T13:22:02;93983.63;;;12.68;49.89
70684;BME280;58263;48.146;11.440;2023-03-14T13:24:29;93995.41;;;12.48;50.69
70684;BME280;58263;48.146;11.440;2023-03-14T13:26:57;94006.75;;;12.15;52.77
70684;BME280;58263;48.146;11.440;2023-03-14T13:31:51;94013.91;;;11.91;54.79
70684;BME280;58263;48.146;11.440;2023-03-14T13:34:17;94027.06;;;11.58;55.20
70684;BME280;58263;48.146;11.440;2023-03-14T13:36:42;94026.41;;;11.31;56.57
70684;BME280;58263;48.146;11.440;2023-03-14T13:39:13;94054.09;;;11.27;57.35
70684;BME280;58263;48.146;11.440;2023-03-14T13:41:40;94053.75;;;11.39;57.50
70684;BME280;58263;48.146;11.440;2023-03-14T13:44:08;94056.25;;;11.25;57.39
70684;BME280;58263;48.146;11.440;2023-03-14T13:46:35;94069.13;;;11.28;57.19
70684;BME280;58263;48.146;11.440;2023-03-14T13:49:03;94067.88;;;11.05;57.50
70684;BME280;58263;48.146;11.440;2023-03-14T13:51:29;94060.69;;;10.90;58.53